createdAt,value
2019-04-04T00:00:29.598Z,97920.22
2019-04-04T00:01:42.272Z,97920.87
2019-04-04T00:02:50.386Z,97918.30
2019-04-04T00:03:58.354Z,97921.30
2019-04-04T00:05:07.585Z,97918.62
2019-04-04T00:06:16.008Z,97915.22
2019-04-04T00:07:24.261Z,97916.89
2019-04-04T00:08:32.587Z,97915.90
2019-04-04T00:09:40.794Z,97917.38
2019-04-04T00:10:49.217Z,97916.89
2019-04-04T00:11:57.794Z,97909.84
2019-04-04T00:13:06.306Z,97908.35
2019-04-04T00:14:14.513Z,97906.50
2019-04-04T00:15:22.638Z,97897.52
2019-04-04T00:16:30.603Z,97900.68
2019-04-04T00:17:38.812Z,97898.52
2019-04-04T00:18:47.509Z,97901.17
2019-04-04T00:19:56.059Z,97897.95
2019-04-04T00:21:04.326Z,97900.13
2019-04-04T00:22:12.565Z,97901.95
2019-04-04T00:23:20.676Z,97902.17
2019-04-04T00:24:28.777Z,97902.69
2019-04-04T00:25:36.761Z,97906.52
2019-04-04T00:26:44.756Z,97919.33
2019-04-04T00:27:53.337Z,97912.06
2019-04-04T00:29:01.644Z,97907.36
2019-04-04T00:30:11.328Z,97911.23
2019-04-04T00:31:19.755Z,97909.89
2019-04-04T00:32:28.040Z,97903.16
2019-04-04T00:33:35.871Z,97907.27
2019-04-04T00:34:44.346Z,97913.30
2019-04-04T00:35:52.474Z,97903.09
2019-04-04T00:37:00.604Z,97900.38
2019-04-04T00:38:08.492Z,97901.33
2019-04-04T00:39:16.428Z,97897.00
2019-04-04T00:40:24.820Z,97895.08
2019-04-04T00:41:33.297Z,97896.66
2019-04-04T00:42:41.211Z,97895.10
2019-04-04T00:43:49.911Z,97894.42
2019-04-04T00:44:58.781Z,97895.91
2019-04-04T00:46:06.854Z,97894.42
2019-04-04T00:47:14.928Z,97901.34
2019-04-04T00:48:23.245Z,97895.69
2019-04-04T00:49:31.535Z,97895.34
2019-04-04T00:50:39.386Z,97893.67
2019-04-04T00:51:47.498Z,97895.84
2019-04-04T00:52:55.500Z,97890.86
2019-04-04T00:54:03.962Z,97896.33
2019-04-04T00:55:11.927Z,97891.81
2019-04-04T00:56:19.796Z,97902.91
2019-04-04T00:57:28.204Z,97900.53
2019-04-04T00:58:36.205Z,97899.34
2019-04-04T00:59:44.312Z,97901.52
2019-04-04T01:00:52.934Z,97894.19
2019-04-04T01:02:02.567Z,97895.10
2019-04-04T01:03:10.907Z,97891.20
2019-04-04T01:04:19.162Z,97893.70
2019-04-04T01:05:27.084Z,97892.75
2019-04-04T01:06:35.366Z,97895.59
2019-04-04T01:07:43.761Z,97893.44
2019-04-04T01:08:51.870Z,97893.52
2019-04-04T01:10:00.208Z,97890.86
2019-04-04T01:11:08.644Z,97889.68
2019-04-04T01:12:16.762Z,97897.50
2019-04-04T01:13:27.530Z,97891.84
2019-04-04T01:14:34.447Z,97889.34
2019-04-04T01:15:42.515Z,97894.31
2019-04-04T01:16:50.471Z,97893.10
2019-04-04T01:17:58.680Z,97889.61
2019-04-04T01:19:09.693Z,97884.25
2019-04-04T01:20:18.097Z,97881.94
2019-04-04T01:21:26.643Z,97884.59
2019-04-04T01:22:34.746Z,97877.05
2019-04-04T01:23:42.922Z,97876.02
2019-04-04T01:24:51.156Z,97878.83
2019-04-04T01:25:59.275Z,97873.67
2019-04-04T01:27:07.501Z,97869.39
2019-04-04T01:28:15.639Z,97873.82
2019-04-04T01:29:23.578Z,97871.92
2019-04-04T01:30:31.396Z,97873.06
2019-04-04T01:31:39.355Z,97870.55
2019-04-04T01:32:48.155Z,97869.16
2019-04-04T01:33:57.163Z,97857.84
2019-04-04T01:35:07.955Z,97865.02
2019-04-04T01:36:16.223Z,97868.52
2019-04-04T01:37:25.212Z,97860.50
2019-04-04T01:38:34.656Z,97867.06
2019-04-04T01:39:42.720Z,97865.34
2019-04-04T01:40:50.851Z,97866.33
2019-04-04T01:41:59.018Z,97863.94
2019-04-04T01:43:09.241Z,97873.38
2019-04-04T01:44:17.171Z,97869.75
2019-04-04T01:45:25.385Z,97877.06
2019-04-04T01:46:33.513Z,97872.33
2019-04-04T01:47:41.553Z,97872.74
2019-04-04T01:48:49.963Z,97877.86
2019-04-04T01:49:58.731Z,97878.50
2019-04-04T01:51:07.949Z,97880.44
2019-04-04T01:52:16.310Z,97882.05
2019-04-04T01:53:24.694Z,97887.22
2019-04-04T01:54:33.261Z,97892.03
2019-04-04T01:55:41.550Z,97883.09
2019-04-04T01:56:49.859Z,97886.73
2019-04-04T01:57:58.024Z,97880.28
2019-04-04T01:59:07.059Z,97883.09
2019-04-04T02:00:16.204Z,97876.45
2019-04-04T02:01:24.243Z,97880.17
2019-04-04T02:02:32.463Z,97871.14
2019-04-04T02:03:40.899Z,97876.45
2019-04-04T02:04:49.152Z,97876.45
2019-04-04T02:05:58.260Z,97879.17
2019-04-04T02:07:07.230Z,97875.14
2019-04-04T02:08:15.700Z,97876.96
2019-04-04T02:09:23.836Z,97873.69
2019-04-04T02:10:34.489Z,97885.39
2019-04-04T02:11:41.764Z,97880.58
2019-04-04T02:12:49.874Z,97881.36
2019-04-04T02:13:58.079Z,97873.83
2019-04-04T02:15:09.286Z,97874.72
2019-04-04T02:16:17.682Z,97874.56
2019-04-04T02:17:25.955Z,97874.17
2019-04-04T02:18:33.788Z,97876.59
2019-04-04T02:19:42.033Z,97875.08
2019-04-04T02:20:50.081Z,97882.39
2019-04-04T02:21:59.840Z,97877.04
2019-04-04T02:23:08.057Z,97886.33
2019-04-04T02:24:16.125Z,97883.39
2019-04-04T02:25:24.247Z,97876.67
2019-04-04T02:26:34.090Z,97873.96
2019-04-04T02:27:42.286Z,97880.59
2019-04-04T02:28:50.498Z,97883.02
2019-04-04T02:29:58.683Z,97887.20
2019-04-04T02:31:08.113Z,97877.77
2019-04-04T02:32:20.206Z,97875.41
2019-04-04T02:33:31.964Z,97876.88
2019-04-04T02:34:38.504Z,97877.36
2019-04-04T02:35:46.680Z,97882.30
2019-04-04T02:36:54.946Z,97888.52
2019-04-04T02:38:03.246Z,97884.75
2019-04-04T02:39:16.266Z,97875.55
2019-04-04T02:40:24.371Z,97863.12
2019-04-04T02:41:32.567Z,97866.27
2019-04-04T02:42:40.985Z,97875.80
2019-04-04T02:43:49.154Z,97884.89
2019-04-04T02:44:57.201Z,97900.56
2019-04-04T02:46:05.052Z,97898.45
2019-04-04T02:47:16.859Z,97894.22
2019-04-04T02:48:24.523Z,97881.05
2019-04-04T02:49:32.858Z,97887.10
2019-04-04T02:50:41.123Z,97883.63
2019-04-04T02:51:49.166Z,97886.57
2019-04-04T02:52:57.265Z,97882.59
2019-04-04T02:54:05.616Z,97891.38
2019-04-04T02:55:13.823Z,97891.88
2019-04-04T02:56:21.918Z,97897.23
2019-04-04T02:57:30.014Z,97888.34
2019-04-04T02:58:38.187Z,97876.66
2019-04-04T02:59:46.295Z,97877.29
2019-04-04T03:00:59.131Z,97876.94
2019-04-04T03:02:05.908Z,97884.89
2019-04-04T03:03:14.366Z,97888.29
2019-04-04T03:04:22.790Z,97884.80
2019-04-04T03:05:31.039Z,97885.29
2019-04-04T03:06:39.388Z,97880.19
2019-04-04T03:07:47.620Z,97878.31
2019-04-04T03:08:55.765Z,97877.62
2019-04-04T03:10:04.697Z,97885.43
2019-04-04T03:11:13.390Z,97880.83
2019-04-04T03:12:25.724Z,97878.61
2019-04-04T03:13:32.398Z,97872.82
2019-04-04T03:14:40.878Z,97868.98
2019-04-04T03:15:49.383Z,97873.02
2019-04-04T03:16:57.915Z,97870.61
2019-04-04T03:18:06.307Z,97867.72
2019-04-04T03:19:14.376Z,97868.70
2019-04-04T03:20:22.511Z,97870.03
2019-04-04T03:21:31.022Z,97880.84
2019-04-04T03:22:39.196Z,97880.63
2019-04-04T03:23:47.261Z,97867.66
2019-04-04T03:24:55.792Z,97870.17
2019-04-04T03:26:03.811Z,97876.86
2019-04-04T03:27:11.886Z,97879.78
2019-04-04T03:28:20.105Z,97879.16
2019-04-04T03:29:28.184Z,97874.29
2019-04-04T03:30:36.287Z,97874.05
2019-04-04T03:31:44.857Z,97878.03
2019-04-04T03:32:54.886Z,97872.17
2019-04-04T03:34:08.400Z,97873.30
2019-04-04T03:35:12.429Z,97871.83
2019-04-04T03:36:20.369Z,97887.01
2019-04-04T03:37:28.421Z,97883.60
2019-04-04T03:38:36.330Z,97877.81
2019-04-04T03:39:44.303Z,97880.11
2019-04-04T03:40:57.461Z,97885.62
2019-04-04T03:42:07.160Z,97875.55
2019-04-04T03:43:15.822Z,97877.23
2019-04-04T03:44:22.373Z,97875.70
2019-04-04T03:45:30.339Z,97879.81
2019-04-04T03:46:39.157Z,97874.72
2019-04-04T03:47:47.311Z,97873.34
2019-04-04T03:48:55.235Z,97880.22
2019-04-04T03:50:03.601Z,97890.97
2019-04-04T03:51:11.426Z,97882.08
2019-04-04T03:52:19.413Z,97880.16
2019-04-04T03:53:27.647Z,97877.86
2019-04-04T03:54:35.875Z,97885.66
2019-04-04T03:55:43.845Z,97875.20
2019-04-04T03:56:52.076Z,97880.86
2019-04-04T03:58:00.362Z,97873.53
2019-04-04T03:59:08.900Z,97879.19
2019-04-04T04:00:33.128Z,97881.97
2019-04-04T04:01:45.385Z,97886.92
2019-04-04T04:02:51.548Z,97885.32
2019-04-04T04:03:59.668Z,97890.17
2019-04-04T04:05:33.775Z,97889.48
2019-04-04T04:06:41.919Z,97890.45
2019-04-04T04:07:50.381Z,97884.85
2019-04-04T04:08:58.883Z,97887.84
2019-04-04T04:10:08.010Z,97887.84
2019-04-04T04:11:16.028Z,97892.11
2019-04-04T04:12:24.455Z,97887.16
2019-04-04T04:13:33.000Z,97891.48
2019-04-04T04:14:41.111Z,97885.48
2019-04-04T04:15:50.401Z,97891.76
2019-04-04T04:16:58.741Z,97886.56
2019-04-04T04:18:07.107Z,97891.52
2019-04-04T04:19:15.536Z,97884.41
2019-04-04T04:20:23.566Z,97893.47
2019-04-04T04:21:31.703Z,97889.39
2019-04-04T04:22:40.248Z,97882.35
2019-04-04T04:23:49.800Z,97890.69
2019-04-04T04:25:02.137Z,97887.69
2019-04-04T04:26:09.454Z,97891.03
2019-04-04T04:27:17.742Z,97888.59
2019-04-04T04:28:25.829Z,97888.00
2019-04-04T04:29:33.759Z,97887.76
2019-04-04T04:30:41.957Z,97894.62
2019-04-04T04:31:50.049Z,97886.33
2019-04-04T04:32:58.252Z,97883.30
2019-04-04T04:34:06.286Z,97882.05
2019-04-04T04:35:14.755Z,97878.42
2019-04-04T04:36:22.797Z,97882.95
2019-04-04T04:37:30.892Z,97882.25
2019-04-04T04:38:39.139Z,97879.95
2019-04-04T04:39:47.054Z,97883.92
2019-04-04T04:40:55.108Z,97878.77
2019-04-04T04:42:03.222Z,97879.73
2019-04-04T04:43:15.148Z,97880.09
2019-04-04T04:44:21.057Z,97881.41
2019-04-04T04:45:29.322Z,97878.28
2019-04-04T04:46:37.363Z,97882.11
2019-04-04T04:47:45.606Z,97884.16
2019-04-04T04:48:53.755Z,97886.71
2019-04-04T04:50:02.359Z,97882.46
2019-04-04T04:51:12.026Z,97881.27
2019-04-04T04:52:20.303Z,97878.86
2019-04-04T04:53:28.266Z,97878.94
2019-04-04T04:54:36.181Z,97879.91
2019-04-04T04:55:44.484Z,97879.08
2019-04-04T04:56:52.595Z,97874.52
2019-04-04T04:58:00.782Z,97881.86
2019-04-04T04:59:08.980Z,97874.41
2019-04-04T05:00:17.123Z,97874.41
2019-04-04T05:01:25.284Z,97875.34
2019-04-04T05:02:33.678Z,97880.09
2019-04-04T05:03:41.793Z,97876.95
2019-04-04T05:04:49.973Z,97871.66
2019-04-04T05:05:57.905Z,97868.27
2019-04-04T05:07:07.417Z,97868.73
2019-04-04T05:08:15.812Z,97876.22
2019-04-04T05:09:24.348Z,97871.62
2019-04-04T05:10:32.403Z,97871.96
2019-04-04T05:11:40.260Z,97873.64
2019-04-04T05:12:48.313Z,97871.34
2019-04-04T05:13:58.290Z,97870.98
2019-04-04T05:15:07.761Z,97874.47
2019-04-04T05:16:15.961Z,97868.83
2019-04-04T05:17:24.014Z,97878.00
2019-04-04T05:18:32.372Z,97877.65
2019-04-04T05:19:40.520Z,97873.43
2019-04-04T05:20:48.709Z,97875.84
2019-04-04T05:21:56.760Z,97879.56
2019-04-04T05:23:05.369Z,97883.75
2019-04-04T05:24:14.016Z,97878.55
2019-04-04T05:25:22.414Z,97876.11
2019-04-04T05:26:34.078Z,97877.43
2019-04-04T05:27:40.408Z,97874.30
2019-04-04T05:28:49.107Z,97877.43
2019-04-04T05:29:57.139Z,97879.83
2019-04-04T05:31:05.202Z,97874.44
2019-04-04T05:32:13.905Z,97871.88
2019-04-04T05:33:22.963Z,97877.78
2019-04-04T05:34:31.198Z,97874.53
2019-04-04T05:35:39.482Z,97875.86
2019-04-04T05:36:47.304Z,97871.74
2019-04-04T05:37:55.301Z,97878.09
2019-04-04T05:39:05.064Z,97874.55
2019-04-04T05:40:13.878Z,97874.91
2019-04-04T05:41:21.944Z,97880.69
2019-04-04T05:42:32.694Z,97874.06
2019-04-04T05:43:40.323Z,97879.92
2019-04-04T05:44:49.653Z,97881.83
2019-04-04T05:45:57.979Z,97877.86
2019-04-04T05:47:06.180Z,97879.73
2019-04-04T05:48:14.464Z,97880.11
2019-04-04T05:49:23.064Z,97881.64
2019-04-04T05:50:31.247Z,97881.30
2019-04-04T05:51:39.345Z,97883.81
2019-04-04T05:52:47.638Z,97883.17
2019-04-04T05:53:55.720Z,97881.17
2019-04-04T05:55:05.830Z,97874.89
2019-04-04T05:56:15.168Z,97888.09
2019-04-04T05:57:24.026Z,97878.67
2019-04-04T05:58:32.126Z,97876.49
2019-04-04T05:59:42.306Z,97881.16
2019-04-04T06:00:50.492Z,97889.84
2019-04-04T06:01:58.480Z,97882.09
2019-04-04T06:03:06.699Z,97873.79
2019-04-04T06:04:14.797Z,97878.31
2019-04-04T06:05:22.912Z,97878.20
2019-04-04T06:06:33.450Z,97877.08
2019-04-04T06:07:41.362Z,97877.91
2019-04-04T06:08:49.516Z,97874.42
2019-04-04T06:09:57.814Z,97883.22
2019-04-04T06:11:06.551Z,97885.23
2019-04-04T06:12:14.654Z,97884.14
2019-04-04T06:13:22.821Z,97881.69
2019-04-04T06:14:30.936Z,97882.62
2019-04-04T06:15:39.560Z,97882.67
2019-04-04T06:16:47.655Z,97880.71
2019-04-04T06:17:55.888Z,97875.83
2019-04-04T06:19:04.308Z,97876.91
2019-04-04T06:20:14.881Z,97874.30
2019-04-04T06:21:22.769Z,97880.30
2019-04-04T06:22:30.851Z,97878.02
2019-04-04T06:23:40.793Z,97881.70
2019-04-04T06:24:51.910Z,97879.20
2019-04-04T06:25:58.690Z,97874.09
2019-04-04T06:27:09.139Z,97882.63
2019-04-04T06:28:17.314Z,97883.31
2019-04-04T06:29:25.508Z,97875.41
2019-04-04T06:30:42.956Z,97878.14
2019-04-04T06:31:43.855Z,97884.71
2019-04-04T06:32:52.150Z,97884.15
2019-04-04T06:34:00.561Z,97881.39
2019-04-04T06:35:09.010Z,97879.80
2019-04-04T06:36:17.914Z,97876.70
2019-04-04T06:37:27.223Z,97878.30
2019-04-04T06:38:35.671Z,97880.39
2019-04-04T06:39:44.220Z,97885.92
2019-04-04T06:40:52.864Z,97882.97
2019-04-04T06:42:03.268Z,97875.42
2019-04-04T06:43:11.910Z,97881.07
2019-04-04T06:44:20.496Z,97881.61
2019-04-04T06:45:29.813Z,97892.11
2019-04-04T06:46:38.021Z,97886.20
2019-04-04T06:47:46.628Z,97881.79
2019-04-04T06:48:55.052Z,97875.56
2019-04-04T06:50:07.115Z,97881.75
2019-04-04T06:51:14.387Z,97887.47
2019-04-04T06:52:23.515Z,97887.54
2019-04-04T06:53:32.234Z,97885.91
2019-04-04T06:54:40.279Z,97883.53
2019-04-04T06:55:49.065Z,97886.60
2019-04-04T06:56:59.173Z,97884.47
2019-04-04T06:58:09.421Z,97891.21
2019-04-04T06:59:17.575Z,97892.30
2019-04-04T07:00:27.788Z,97888.87
2019-04-04T07:01:35.813Z,97887.29
2019-04-04T07:02:43.978Z,97888.38
2019-04-04T07:03:52.796Z,97890.28
2019-04-04T07:05:01.320Z,97891.70
2019-04-04T07:06:10.173Z,97891.78
2019-04-04T07:07:19.044Z,97885.55
2019-04-04T07:08:27.220Z,97886.83
2019-04-04T07:09:37.265Z,97889.06
2019-04-04T07:10:57.429Z,97888.64
2019-04-04T07:11:55.918Z,97894.03
2019-04-04T07:13:14.757Z,97886.60
2019-04-04T07:14:14.773Z,97887.98
2019-04-04T07:15:23.168Z,97885.67
2019-04-04T07:16:31.928Z,97891.54
2019-04-04T07:17:40.402Z,97891.38
2019-04-04T07:18:49.188Z,97887.59
2019-04-04T07:19:57.121Z,97886.47
2019-04-04T07:21:05.500Z,97886.97
2019-04-04T07:22:13.595Z,97880.80
2019-04-04T07:23:21.800Z,97881.97
2019-04-04T07:24:31.185Z,97879.31
2019-04-04T07:25:40.237Z,97884.31
2019-04-04T07:26:48.476Z,97883.48
2019-04-04T07:27:57.051Z,97883.81
2019-04-04T07:29:05.498Z,97880.81
2019-04-04T07:30:15.454Z,97875.82
2019-04-04T07:31:24.302Z,97877.48
2019-04-04T07:32:33.073Z,97883.19
2019-04-04T07:33:42.874Z,97875.36
2019-04-04T07:34:50.910Z,97876.03
2019-04-04T07:35:59.462Z,97878.74
2019-04-04T07:37:07.526Z,97880.58
2019-04-04T07:38:15.853Z,97878.45
2019-04-04T07:39:24.284Z,97877.62
2019-04-04T07:40:36.300Z,97876.00
2019-04-04T07:41:44.918Z,97879.34
2019-04-04T07:42:52.684Z,97874.88
2019-04-04T07:44:00.685Z,97875.05
2019-04-04T07:45:09.682Z,97872.42
2019-04-04T07:46:17.813Z,97878.76
2019-04-04T07:47:25.960Z,97875.80
2019-04-04T07:48:34.369Z,97878.80
2019-04-04T07:49:42.347Z,97883.17
2019-04-04T07:50:51.532Z,97879.54
2019-04-04T07:52:00.136Z,97875.88
2019-04-04T07:53:09.566Z,97876.57
2019-04-04T07:54:17.625Z,97876.41
2019-04-04T07:55:25.657Z,97877.27
2019-04-04T07:56:34.059Z,97879.80
2019-04-04T07:57:42.227Z,97888.84
2019-04-04T07:58:50.238Z,97884.33
2019-04-04T07:59:58.357Z,97889.02
2019-04-04T08:01:06.890Z,97887.88
2019-04-04T08:02:15.113Z,97891.74
2019-04-04T08:03:23.354Z,97888.76
2019-04-04T08:04:31.615Z,97881.30
2019-04-04T08:05:39.855Z,97885.66
2019-04-04T08:06:48.439Z,97885.65
2019-04-04T08:07:57.119Z,97885.98
2019-04-04T08:09:07.665Z,97884.00
2019-04-04T08:10:20.787Z,97880.66
2019-04-04T08:11:25.961Z,97877.48
2019-04-04T08:12:34.319Z,97878.49
2019-04-04T08:13:42.284Z,97889.16
2019-04-04T08:14:50.978Z,97883.32
2019-04-04T08:15:59.023Z,97885.17
2019-04-04T08:17:07.239Z,97888.84
2019-04-04T08:18:15.420Z,97887.52
2019-04-04T08:19:23.833Z,97884.51
2019-04-04T08:20:32.186Z,97884.20
2019-04-04T08:21:40.319Z,97883.36
2019-04-04T08:22:48.622Z,97881.19
2019-04-04T08:23:56.618Z,97877.70
2019-04-04T08:25:05.451Z,97874.52
2019-04-04T08:26:13.561Z,97865.50
2019-04-04T08:27:22.398Z,97864.65
2019-04-04T08:28:30.681Z,97871.83
2019-04-04T08:29:38.803Z,97866.83
2019-04-04T08:30:47.095Z,97865.17
2019-04-04T08:31:55.078Z,97861.47
2019-04-04T08:33:03.498Z,97859.64
2019-04-04T08:34:11.707Z,97852.61
2019-04-04T08:35:20.158Z,97851.96
2019-04-04T08:36:28.254Z,97846.29
2019-04-04T08:37:36.742Z,97847.27
2019-04-04T08:38:44.779Z,97849.92
2019-04-04T08:39:53.167Z,97855.09
2019-04-04T08:41:01.317Z,97838.41
2019-04-04T08:42:09.939Z,97843.73
2019-04-04T08:43:18.205Z,97840.05
2019-04-04T08:44:26.595Z,97840.55
2019-04-04T08:45:34.781Z,97848.22
2019-04-04T08:46:42.940Z,97840.71
2019-04-04T08:47:51.026Z,97846.75
2019-04-04T08:48:59.158Z,97850.55
2019-04-04T08:50:08.094Z,97851.39
2019-04-04T08:51:16.296Z,97851.71
2019-04-04T08:52:24.908Z,97843.98
2019-04-04T08:53:39.940Z,97851.00
2019-04-04T08:54:43.465Z,97843.80
2019-04-04T08:55:51.862Z,97844.59
2019-04-04T08:57:00.029Z,97853.45
2019-04-04T08:58:09.118Z,97852.58
2019-04-04T08:59:17.506Z,97854.94
2019-04-04T09:00:25.922Z,97852.08
2019-04-04T09:01:34.192Z,97851.23
2019-04-04T09:02:42.509Z,97854.56
2019-04-04T09:03:50.455Z,97854.89
2019-04-04T09:05:10.917Z,97857.56
2019-04-04T09:06:08.291Z,97859.05
2019-04-04T09:07:17.846Z,97858.72
2019-04-04T09:08:26.336Z,97863.20
2019-04-04T09:09:34.975Z,97858.02
2019-04-04T09:10:43.491Z,97857.98
2019-04-04T09:11:51.670Z,97858.48
2019-04-04T09:12:59.891Z,97862.14
2019-04-04T09:14:07.861Z,97862.45
2019-04-04T09:15:16.581Z,97863.98
2019-04-04T09:16:24.780Z,97856.45
2019-04-04T09:17:33.125Z,97858.25
2019-04-04T09:18:41.623Z,97849.00
2019-04-04T09:19:49.895Z,97854.30
2019-04-04T09:20:58.392Z,97845.91
2019-04-04T09:22:06.490Z,97854.70
2019-04-04T09:23:14.914Z,97851.78
2019-04-04T09:24:23.095Z,97847.69
2019-04-04T09:25:31.796Z,97847.27
2019-04-04T09:26:40.151Z,97852.19
2019-04-04T09:27:48.263Z,97847.44
2019-04-04T09:28:56.450Z,97847.88
2019-04-04T09:30:05.470Z,97840.95
2019-04-04T09:31:13.955Z,97844.56
2019-04-04T09:32:22.293Z,97841.86
2019-04-04T09:33:30.783Z,97844.86
2019-04-04T09:34:39.215Z,97840.45
2019-04-04T09:35:47.290Z,97833.40
2019-04-04T09:36:56.047Z,97836.40
2019-04-04T09:38:04.611Z,97830.66
2019-04-04T09:39:12.776Z,97830.63
2019-04-04T09:40:21.896Z,97833.59
2019-04-04T09:41:30.182Z,97843.40
2019-04-04T09:42:38.478Z,97834.09
2019-04-04T09:43:47.108Z,97836.68
2019-04-04T09:44:55.279Z,97831.08
2019-04-04T09:46:03.954Z,97829.00
2019-04-04T09:47:12.145Z,97835.48
2019-04-04T09:48:20.384Z,97833.39
2019-04-04T09:49:28.493Z,97837.66
2019-04-04T09:50:36.537Z,97832.38
2019-04-04T09:51:44.703Z,97830.91
2019-04-04T09:52:52.559Z,97829.84
2019-04-04T09:54:00.568Z,97824.55
2019-04-04T09:55:10.328Z,97827.30
2019-04-04T09:56:18.222Z,97829.70
2019-04-04T09:57:27.554Z,97824.55
2019-04-04T09:58:35.712Z,97819.03
2019-04-04T09:59:43.814Z,97814.86
2019-04-04T10:00:51.910Z,97817.41
2019-04-04T10:02:00.422Z,97817.47
2019-04-04T10:03:08.926Z,97820.02
2019-04-04T10:04:17.025Z,97810.15
2019-04-04T10:05:25.221Z,97808.40
2019-04-04T10:06:33.527Z,97809.17
2019-04-04T10:07:41.989Z,97806.84
2019-04-04T10:08:49.958Z,97806.69
2019-04-04T10:09:58.576Z,97803.32
2019-04-04T10:11:06.828Z,97796.36
2019-04-04T10:12:15.117Z,97802.92
2019-04-04T10:13:23.410Z,97801.09
2019-04-04T10:14:31.742Z,97807.45
2019-04-04T10:15:39.938Z,97799.27
2019-04-04T10:16:48.220Z,97795.06
2019-04-04T10:17:56.962Z,97787.33
2019-04-04T10:19:05.673Z,97789.67
2019-04-04T10:20:14.407Z,97785.98
2019-04-04T10:21:22.425Z,97786.19
2019-04-04T10:22:30.565Z,97777.42
2019-04-04T10:23:38.987Z,97784.81
2019-04-04T10:24:47.454Z,97784.99
2019-04-04T10:25:55.824Z,97781.65
2019-04-04T10:27:04.133Z,97782.17
2019-04-04T10:28:12.158Z,97772.62
2019-04-04T10:29:20.304Z,97771.69
2019-04-04T10:30:28.686Z,97757.39
2019-04-04T10:31:36.882Z,97760.75
2019-04-04T10:32:45.990Z,97757.88
2019-04-04T10:33:54.179Z,97761.57
2019-04-04T10:35:02.496Z,97763.00
2019-04-04T10:36:10.611Z,97761.38
2019-04-04T10:37:19.104Z,97756.73
2019-04-04T10:38:27.238Z,97758.44
2019-04-04T10:39:35.507Z,97753.83
2019-04-04T10:40:43.805Z,97754.09
2019-04-04T10:41:52.017Z,97750.55
2019-04-04T10:43:00.307Z,97745.40
2019-04-04T10:44:08.499Z,97749.61
2019-04-04T10:45:17.093Z,97748.44
2019-04-04T10:46:25.235Z,97747.00
2019-04-04T10:47:33.360Z,97747.09
2019-04-04T10:48:41.330Z,97751.01
2019-04-04T10:49:49.586Z,97748.80
2019-04-04T10:50:57.687Z,97740.58
2019-04-04T10:52:06.144Z,97735.54
2019-04-04T10:53:14.323Z,97737.27
2019-04-04T10:54:22.748Z,97729.43
2019-04-04T10:55:31.114Z,97723.84
2019-04-04T10:56:39.333Z,97722.76
2019-04-04T10:57:47.440Z,97723.31
2019-04-04T10:58:55.485Z,97712.28
2019-04-04T11:00:04.930Z,97716.25
2019-04-04T11:01:13.119Z,97724.95
2019-04-04T11:02:21.470Z,97724.29
2019-04-04T11:03:29.424Z,97715.92
2019-04-04T11:04:37.526Z,97723.42
2019-04-04T11:05:46.039Z,97724.89
2019-04-04T11:06:54.173Z,97723.03
2019-04-04T11:08:02.436Z,97718.12
2019-04-04T11:09:10.638Z,97720.06
2019-04-04T11:10:18.966Z,97719.53
2019-04-04T11:11:27.092Z,97723.35
2019-04-04T11:12:35.554Z,97707.48
2019-04-04T11:13:43.740Z,97705.83
2019-04-04T11:14:52.067Z,97705.02
2019-04-04T11:16:00.246Z,97709.13
2019-04-04T11:17:08.241Z,97708.45
2019-04-04T11:18:16.439Z,97702.00
2019-04-04T11:19:31.085Z,97698.28
2019-04-04T11:20:34.402Z,97698.58
2019-04-04T11:21:42.350Z,97699.01
2019-04-04T11:22:50.646Z,97698.47
2019-04-04T11:23:59.540Z,97696.77
2019-04-04T11:25:08.047Z,97693.69
2019-04-04T11:26:16.696Z,97697.25
2019-04-04T11:27:24.666Z,97686.21
2019-04-04T11:28:32.862Z,97692.97
2019-04-04T11:29:41.723Z,97684.87
2019-04-04T11:30:50.330Z,97689.56
2019-04-04T11:31:58.364Z,97681.95
2019-04-04T11:33:06.844Z,97696.94
2019-04-04T11:34:15.320Z,97692.85
2019-04-04T11:35:23.624Z,97695.28
2019-04-04T11:36:32.004Z,97682.77
2019-04-04T11:37:40.431Z,97684.66
2019-04-04T11:38:48.629Z,97688.91
2019-04-04T11:39:56.846Z,97679.81
2019-04-04T11:41:05.436Z,97676.91
2019-04-04T11:42:14.045Z,97676.29
2019-04-04T11:43:22.553Z,97673.71
2019-04-04T11:44:30.875Z,97693.35
2019-04-04T11:45:39.271Z,97680.73
2019-04-04T11:46:48.582Z,97672.91
2019-04-04T11:47:56.752Z,97673.57
2019-04-04T11:49:05.263Z,97682.72
2019-04-04T11:50:13.604Z,97668.11
2019-04-04T11:51:21.906Z,97664.59
2019-04-04T11:52:30.348Z,97658.06
2019-04-04T11:53:38.667Z,97666.87
2019-04-04T11:54:57.472Z,97669.14
2019-04-04T11:56:05.875Z,97668.45
2019-04-04T11:57:13.956Z,97665.41
2019-04-04T11:58:22.479Z,97657.45
2019-04-04T11:59:32.234Z,97649.05
2019-04-04T12:00:42.354Z,97640.96
2019-04-04T12:01:51.827Z,97639.95
2019-04-04T12:02:59.969Z,97641.50
2019-04-04T12:04:08.051Z,97644.85
2019-04-04T12:05:16.286Z,97654.17
2019-04-04T12:06:24.475Z,97658.50
2019-04-04T12:07:32.667Z,97655.91
2019-04-04T12:08:40.854Z,97634.21
2019-04-04T12:09:49.063Z,97645.91
2019-04-04T12:10:57.375Z,97640.71
2019-04-04T12:12:05.829Z,97644.38
2019-04-04T12:13:14.160Z,97643.53
2019-04-04T12:14:22.082Z,97641.23
2019-04-04T12:15:30.112Z,97662.28
2019-04-04T12:16:38.583Z,97636.82
2019-04-04T12:17:46.722Z,97638.16
2019-04-04T12:18:55.172Z,97637.23
2019-04-04T12:20:03.481Z,97656.14
2019-04-04T12:21:11.755Z,97659.22
2019-04-04T12:22:19.832Z,97644.29
2019-04-04T12:23:28.280Z,97627.11
2019-04-04T12:24:36.453Z,97637.17
2019-04-04T12:25:44.972Z,97635.27
2019-04-04T12:26:53.278Z,97644.81
2019-04-04T12:28:01.970Z,97640.30
2019-04-04T12:29:10.714Z,97637.86
2019-04-04T12:30:20.897Z,97633.19
2019-04-04T12:31:29.693Z,97629.36
2019-04-04T12:32:38.174Z,97650.32
2019-04-04T12:33:47.034Z,97642.56
2019-04-04T12:34:55.873Z,97640.45
2019-04-04T12:36:04.298Z,97640.81
2019-04-04T12:37:13.706Z,97638.87
2019-04-04T12:38:21.833Z,97634.25
2019-04-04T12:39:29.847Z,97645.42
2019-04-04T12:40:38.502Z,97633.44
2019-04-04T12:41:46.674Z,97634.44
2019-04-04T12:42:55.072Z,97614.74
2019-04-04T12:44:03.493Z,97615.91
2019-04-04T12:45:12.664Z,97612.98
2019-04-04T12:46:20.776Z,97615.59
2019-04-04T12:47:28.900Z,97607.58
2019-04-04T12:48:37.105Z,97602.53
2019-04-04T12:49:45.356Z,97623.49
2019-04-04T12:50:54.190Z,97602.61
2019-04-04T12:52:02.539Z,97598.29
2019-04-04T12:53:10.877Z,97600.95
2019-04-04T12:54:18.802Z,97610.08
2019-04-04T12:55:26.951Z,97611.52
2019-04-04T12:56:35.168Z,97608.01
2019-04-04T12:57:43.655Z,97612.33
2019-04-04T12:58:52.330Z,97601.86
2019-04-04T13:00:00.654Z,97595.86
2019-04-04T13:01:08.769Z,97598.66
2019-04-04T13:02:16.905Z,97622.02
2019-04-04T13:03:25.165Z,97596.37
2019-04-04T13:04:33.676Z,97587.24
2019-04-04T13:05:42.634Z,97590.26
2019-04-04T13:06:51.248Z,97590.03
2019-04-04T13:07:59.432Z,97600.39
2019-04-04T13:09:09.587Z,97591.19
2019-04-04T13:10:18.482Z,97584.77
2019-04-04T13:11:26.788Z,97598.72
2019-04-04T13:12:34.893Z,97575.61
2019-04-04T13:13:42.979Z,97574.04
2019-04-04T13:14:51.286Z,97587.75
2019-04-04T13:15:59.831Z,97595.08
2019-04-04T13:17:08.092Z,97586.97
2019-04-04T13:18:16.759Z,97584.41
2019-04-04T13:19:24.793Z,97591.27
2019-04-04T13:20:33.560Z,97577.10
2019-04-04T13:21:42.117Z,97581.95
2019-04-04T13:22:50.247Z,97597.38
2019-04-04T13:23:59.434Z,97614.89
2019-04-04T13:25:12.668Z,97581.69